Palmayachts — CRA6482 — position and weather

sailwx.info

Track history (hours):
 
Tides and Currents Weather Stations Pressure Air Temp Water Temp Dewpoint Dewpoint Depression Visibility Wind Speed Wind Dir Waves Ship Positions

Palmayachts

Last reported at 2018-Jun-24 11:38 UTC. Time now 2018-Jun-25 04:27 UTC.
Position N 38°41' W 009°25'.

Length 11 m.

Type: Sailing vessel. MMSI: 263950950.

Date/timePositionNaut miles runAvg speedWind from/ knotsBaromVisibWave heightAir tempDewpointWater temp
2018-Jun-24 11:38N 38°41' W 009°25'0 1.5
2018-Jun-24 11:29N 38°42' W 009°25'0 0.9
2018-Jun-24 11:00N 38°42' W 009°24'3 5.6
2018-Jun-24 10:30N 38°41' W 009°21'5 8.9
2018-Jun-24 09:54N 38°41' W 009°14'1 2.5
2018-Jun-24 09:27N 38°41' W 009°13'1 1.0
2018-Jun-24 08:51N 38°42' W 009°12'1 0.1
2018-Jun-23 20:21N 38°41' W 009°12'1 1.3
2018-Jun-23 19:22N 38°41' W 009°10'1 1.4
2018-Jun-23 18:59N 38°41' W 009°09'1 1.4
2018-Jun-23 18:23N 38°42' W 009°09'1 1.4
2018-Jun-23 18:00N 38°42' W 009°08'3 4.5
2018-Jun-23 17:15N 38°42' W 009°12'0 0.0
2018-Jun-23 16:57N 38°42' W 009°12'1 2.6
2018-Jun-23 16:28N 38°42' W 009°11'1 1.5
2018-Jun-23 15:49N 38°42' W 009°12'0 0.9
2018-Jun-23 15:27N 38°42' W 009°12'1 1.1
2018-Jun-23 14:55N 38°41' W 009°13'1 1.2
2018-Jun-23 14:27N 38°42' W 009°12'0 0.0
2018-Jun-22 20:03N 38°42' W 009°12'1 2.9
2018-Jun-22 19:49N 38°41' W 009°12'1 4.1
2018-Jun-22 19:30N 38°41' W 009°10'2 4.1
2018-Jun-22 19:00N 38°42' W 009°08'3 5.9
2018-Jun-22 18:28N 38°42' W 009°12'0 0.1
2018-Jun-22 13:24N 38°42' W 009°12'2 3.0
2018-Jun-22 12:47N 38°41' W 009°10'1 5.2
2018-Jun-22 12:30N 38°42' W 009°08'0 0.7
2018-Jun-22 11:56N 38°42' W 009°09'2 4.1
2018-Jun-22 11:25N 38°42' W 009°12'1 0.0
2018-Jun-21 20:05N 38°42' W 009°12'0 2.9
2018-Jun-21 19:58N 38°41' W 009°12'2 3.7
2018-Jun-21 19:25N 38°41' W 009°09'1 3.0
2018-Jun-21 19:00N 38°42' W 009°08'3 6.3
2018-Jun-21 18:30N 38°42' W 009°12'0 0.1
2018-Jun-21 16:43N 38°42' W 009°12'1 5.9
2018-Jun-21 16:29N 38°42' W 009°14'3 6.1
2018-Jun-21 15:59N 38°41' W 009°18'3 5.6
2018-Jun-21 15:29N 38°41' W 009°21'3 5.7
2018-Jun-21 14:59N 38°42' W 009°25'1 2.1
2018-Jun-21 14:30N 38°41' W 009°24'0 0.7
2018-Jun-21 13:59N 38°42' W 009°24'1 0.5
2018-Jun-21 12:19N 38°42' W 009°25'1 4.7
2018-Jun-21 12:00N 38°41' W 009°23'3 6.8
2018-Jun-21 11:30N 38°40' W 009°19'5 7.8
2018-Jun-21 10:56N 38°41' W 009°13'1 0.1
2018-Jun-20 20:59N 38°42' W 009°12'1 1.4
2018-Jun-20 20:28N 38°41' W 009°12'1 1.6
2018-Jun-20 20:00N 38°42' W 009°12'1 2.7
2018-Jun-20 19:28N 38°41' W 009°11'2 4.0
2018-Jun-20 19:00N 38°42' W 009°08'3 4.4
2018-Jun-20 18:26N 38°42' W 009°12'0 0.9
2018-Jun-20 17:57N 38°42' W 009°12'0 0.3
2018-Jun-20 16:51N 38°42' W 009°13'2 5.5
2018-Jun-20 16:26N 38°42' W 009°10'0 1.1
2018-Jun-20 16:00N 38°42' W 009°09'2 4.7
2018-Jun-20 15:29N 38°41' W 009°12'1 1.7
2018-Jun-20 15:00N 38°41' W 009°13'1 1.5
2018-Jun-20 14:30N 38°42' W 009°12'0 0.1
2018-Jun-20 13:59N 38°42' W 009°12'0 0.5
2018-Jun-20 13:31N 38°42' W 009°13'0 0.6
2018-Jun-20 12:58N 38°42' W 009°12'0 0.0
2018-Jun-20 09:59N 38°42' W 009°12'1 1.6
2018-Jun-20 09:23N 38°41' W 009°12'1 0.1
2018-Jun-19 18:56N 38°42' W 009°12'2 4.3
2018-Jun-19 18:25N 38°42' W 009°09'1 3.1
2018-Jun-19 18:00N 38°42' W 009°08'0 0.7
2018-Jun-19 17:29N 38°43' W 009°08'3 5.6
2018-Jun-19 16:59N 38°42' W 009°11'2 4.6
2018-Jun-19 16:28N 38°41' W 009°14'1 1.6
2018-Jun-19 15:37N 38°42' W 009°12'0 0.0
2018-Jun-18 20:06N 38°42' W 009°12'1 4.2
2018-Jun-18 19:57N 38°41' W 009°12'2 5.2
2018-Jun-18 19:31N 38°42' W 009°09'1 1.2
2018-Jun-18 18:59N 38°42' W 009°09'3 4.8
2018-Jun-18 18:28N 38°42' W 009°12'0 0.3
2018-Jun-18 17:55N 38°42' W 009°12'0 0.7
2018-Jun-18 17:27N 38°42' W 009°12'2 4.6
2018-Jun-18 16:59N 38°41' W 009°09'1 2.8
2018-Jun-18 16:30N 38°42' W 009°08'3 5.6
2018-Jun-18 15:59N 38°42' W 009°12'1 0.0
2018-Jun-17 20:07N 38°42' W 009°12'0 1.9
2018-Jun-17 19:59N 38°41' W 009°12'2 3.8
2018-Jun-17 19:28N 38°41' W 009°10'1 1.9
2018-Jun-17 18:57N 38°42' W 009°09'3 4.9
2018-Jun-17 18:25N 38°42' W 009°12'0 0.0
2018-Jun-17 15:15N 38°42' W 009°12'0 1.6
2018-Jun-17 15:00N 38°41' W 009°12'2 4.3
2018-Jun-17 14:31N 38°41' W 009°09'1 1.4
2018-Jun-17 13:56N 38°42' W 009°10'3 5.7
2018-Jun-17 13:29N 38°41' W 009°13'1 0.3
2018-Jun-17 11:48N 38°42' W 009°12'0 0.0
2018-Jun-17 11:27N 38°42' W 009°12'0 0.1
2018-Jun-17 10:45N 38°42' W 009°12'1 3.6
2018-Jun-17 10:30N 38°41' W 009°13'1 1.9
2018-Jun-17 10:00N 38°41' W 009°14'1 2.9
2018-Jun-17 09:30N 38°41' W 009°13'0 0.0
2018-Jun-16 20:04N 38°42' W 009°12'0 0.3
2018-Jun-16 19:57N 38°42' W 009°12'2 5.3
2018-Jun-16 19:30N 38°42' W 009°09'1 1.7
2018-Jun-16 19:00N 38°42' W 009°10'2 4.0
2018-Jun-16 18:30N 38°42' W 009°13'0 0.6
2018-Jun-16 18:00N 38°42' W 009°12'1 1.2
2018-Jun-16 17:27N 38°42' W 009°11'2 5.4
2018-Jun-16 17:00N 38°42' W 009°08'3 4.9
2018-Jun-16 16:29N 38°42' W 009°12'1 1.0
2018-Jun-16 15:56N 38°42' W 009°12'0 0.0
2018-Jun-16 15:29N 38°42' W 009°12'0 0.0
2018-Jun-16 13:58N 38°42' W 009°12'1 2.4
2018-Jun-16 13:29N 38°41' W 009°11'3 5.6
2018-Jun-16 13:00N 38°42' W 009°14'0 0.1
2018-Jun-16 12:22N 38°42' W 009°14'0 0.0
2018-Jun-16 11:53N 38°42' W 009°14'0 0.1
2018-Jun-16 11:30N 38°42' W 009°14'2 0.1
2018-Jun-15 15:41N 38°42' W 009°12'0 0.3
2018-Jun-15 15:30N 38°42' W 009°12'2 3.0
2018-Jun-15 14:58N 38°41' W 009°10'2 4.9
2018-Jun-15 14:30N 38°42' W 009°08'3 6.2
2018-Jun-15 13:59N 38°42' W 009°12'0 0.2
2018-Jun-15 12:04N 38°42' W 009°12'0 1.6
2018-Jun-15 11:59N 38°42' W 009°12'2 3.7
2018-Jun-15 11:29N 38°41' W 009°10'1 1.7
2018-Jun-15 10:55N 38°42' W 009°09'2 0.2
2018-Jun-14 20:05N 38°42' W 009°12'0 0.0
2018-Jun-14 20:00N 38°42' W 009°12'1 2.8
2018-Jun-14 19:29N 38°41' W 009°11'2 3.9
2018-Jun-14 19:00N 38°42' W 009°09'3 4.8
2018-Jun-14 18:23N 38°42' W 009°12'0 0.3
2018-Jun-14 17:57N 38°42' W 009°12'0 0.2
2018-Jun-14 17:26N 38°42' W 009°12'1 1.9
2018-Jun-14 16:56N 38°41' W 009°11'3 6.6
2018-Jun-14 16:30N 38°42' W 009°08'2 3.7
2018-Jun-14 15:59N 38°42' W 009°10'  
Track history (hours):
 
Tides and Currents Weather Stations Pressure Air Temp Water Temp Dewpoint Dewpoint Depression Visibility Wind Speed Wind Dir Waves Ship Positions

Palmayachts

Last reported at 2018-Jun-24 11:38 UTC. Time now 2018-Jun-25 04:27 UTC.
Position N 38°41' W 009°25'.

Length 11 m.

Type: Sailing vessel. MMSI: 263950950.

Date/timePositionNaut miles runAvg speedWind from/ knotsBaromVisibWave heightAir tempDewpointWater temp
2018-Jun-24 11:38N 38°41' W 009°25'0 1.5
2018-Jun-24 11:29N 38°42' W 009°25'0 0.9
2018-Jun-24 11:00N 38°42' W 009°24'3 5.6
2018-Jun-24 10:30N 38°41' W 009°21'5 8.9
2018-Jun-24 09:54N 38°41' W 009°14'1 2.5
2018-Jun-24 09:27N 38°41' W 009°13'1 1.0
2018-Jun-24 08:51N 38°42' W 009°12'1 0.1
2018-Jun-23 20:21N 38°41' W 009°12'1 1.3
2018-Jun-23 19:22N 38°41' W 009°10'1 1.4
2018-Jun-23 18:59N 38°41' W 009°09'1 1.4
2018-Jun-23 18:23N 38°42' W 009°09'1 1.4
2018-Jun-23 18:00N 38°42' W 009°08'3 4.5
2018-Jun-23 17:15N 38°42' W 009°12'0 0.0
2018-Jun-23 16:57N 38°42' W 009°12'1 2.6
2018-Jun-23 16:28N 38°42' W 009°11'1 1.5
2018-Jun-23 15:49N 38°42' W 009°12'0 0.9
2018-Jun-23 15:27N 38°42' W 009°12'1 1.1
2018-Jun-23 14:55N 38°41' W 009°13'1 1.2
2018-Jun-23 14:27N 38°42' W 009°12'0 0.0
2018-Jun-22 20:03N 38°42' W 009°12'1 2.9
2018-Jun-22 19:49N 38°41' W 009°12'1 4.1
2018-Jun-22 19:30N 38°41' W 009°10'2 4.1
2018-Jun-22 19:00N 38°42' W 009°08'3 5.9
2018-Jun-22 18:28N 38°42' W 009°12'0 0.1
2018-Jun-22 13:24N 38°42' W 009°12'2 3.0
2018-Jun-22 12:47N 38°41' W 009°10'1 5.2
2018-Jun-22 12:30N 38°42' W 009°08'0 0.7
2018-Jun-22 11:56N 38°42' W 009°09'2 4.1
2018-Jun-22 11:25N 38°42' W 009°12'1 0.0
2018-Jun-21 20:05N 38°42' W 009°12'0 2.9
2018-Jun-21 19:58N 38°41' W 009°12'2 3.7
2018-Jun-21 19:25N 38°41' W 009°09'1 3.0
2018-Jun-21 19:00N 38°42' W 009°08'3 6.3
2018-Jun-21 18:30N 38°42' W 009°12'0 0.1
2018-Jun-21 16:43N 38°42' W 009°12'1 5.9
2018-Jun-21 16:29N 38°42' W 009°14'3 6.1
2018-Jun-21 15:59N 38°41' W 009°18'3 5.6
2018-Jun-21 15:29N 38°41' W 009°21'3 5.7
2018-Jun-21 14:59N 38°42' W 009°25'1 2.1
2018-Jun-21 14:30N 38°41' W 009°24'0 0.7
2018-Jun-21 13:59N 38°42' W 009°24'1 0.5
2018-Jun-21 12:19N 38°42' W 009°25'1 4.7
2018-Jun-21 12:00N 38°41' W 009°23'3 6.8
2018-Jun-21 11:30N 38°40' W 009°19'5 7.8
2018-Jun-21 10:56N 38°41' W 009°13'1 0.1
2018-Jun-20 20:59N 38°42' W 009°12'1 1.4
2018-Jun-20 20:28N 38°41' W 009°12'1 1.6
2018-Jun-20 20:00N 38°42' W 009°12'1 2.7
2018-Jun-20 19:28N 38°41' W 009°11'2 4.0
2018-Jun-20 19:00N 38°42' W 009°08'3 4.4
2018-Jun-20 18:26N 38°42' W 009°12'0 0.9
2018-Jun-20 17:57N 38°42' W 009°12'0 0.3
2018-Jun-20 16:51N 38°42' W 009°13'2 5.5
2018-Jun-20 16:26N 38°42' W 009°10'0 1.1
2018-Jun-20 16:00N 38°42' W 009°09'2 4.7
2018-Jun-20 15:29N 38°41' W 009°12'1 1.7
2018-Jun-20 15:00N 38°41' W 009°13'1 1.5
2018-Jun-20 14:30N 38°42' W 009°12'0 0.1
2018-Jun-20 13:59N 38°42' W 009°12'0 0.5
2018-Jun-20 13:31N 38°42' W 009°13'0 0.6
2018-Jun-20 12:58N 38°42' W 009°12'0 0.0
2018-Jun-20 09:59N 38°42' W 009°12'1 1.6
2018-Jun-20 09:23N 38°41' W 009°12'1 0.1
2018-Jun-19 18:56N 38°42' W 009°12'2 4.3
2018-Jun-19 18:25N 38°42' W 009°09'1 3.1
2018-Jun-19 18:00N 38°42' W 009°08'0 0.7
2018-Jun-19 17:29N 38°43' W 009°08'3 5.6
2018-Jun-19 16:59N 38°42' W 009°11'2 4.6
2018-Jun-19 16:28N 38°41' W 009°14'1 1.6
2018-Jun-19 15:37N 38°42' W 009°12'0 0.0
2018-Jun-18 20:06N 38°42' W 009°12'1 4.2
2018-Jun-18 19:57N 38°41' W 009°12'2 5.2
2018-Jun-18 19:31N 38°42' W 009°09'1 1.2
2018-Jun-18 18:59N 38°42' W 009°09'3 4.8
2018-Jun-18 18:28N 38°42' W 009°12'0 0.3
2018-Jun-18 17:55N 38°42' W 009°12'0 0.7
2018-Jun-18 17:27N 38°42' W 009°12'2 4.6
2018-Jun-18 16:59N 38°41' W 009°09'1 2.8
2018-Jun-18 16:30N 38°42' W 009°08'3 5.6
2018-Jun-18 15:59N 38°42' W 009°12'1 0.0
2018-Jun-17 20:07N 38°42' W 009°12'0 1.9
2018-Jun-17 19:59N 38°41' W 009°12'2 3.8
2018-Jun-17 19:28N 38°41' W 009°10'1 1.9
2018-Jun-17 18:57N 38°42' W 009°09'3 4.9
2018-Jun-17 18:25N 38°42' W 009°12'0 0.0
2018-Jun-17 15:15N 38°42' W 009°12'0 1.6
2018-Jun-17 15:00N 38°41' W 009°12'2 4.3
2018-Jun-17 14:31N 38°41' W 009°09'1 1.4
2018-Jun-17 13:56N 38°42' W 009°10'3 5.7
2018-Jun-17 13:29N 38°41' W 009°13'1 0.3
2018-Jun-17 11:48N 38°42' W 009°12'0 0.0
2018-Jun-17 11:27N 38°42' W 009°12'0 0.1
2018-Jun-17 10:45N 38°42' W 009°12'1 3.6
2018-Jun-17 10:30N 38°41' W 009°13'1 1.9
2018-Jun-17 10:00N 38°41' W 009°14'1 2.9
2018-Jun-17 09:30N 38°41' W 009°13'0 0.0
2018-Jun-16 20:04N 38°42' W 009°12'0 0.3
2018-Jun-16 19:57N 38°42' W 009°12'2 5.3
2018-Jun-16 19:30N 38°42' W 009°09'1 1.7
2018-Jun-16 19:00N 38°42' W 009°10'2 4.0
2018-Jun-16 18:30N 38°42' W 009°13'0 0.6
2018-Jun-16 18:00N 38°42' W 009°12'1 1.2
2018-Jun-16 17:27N 38°42' W 009°11'2 5.4
2018-Jun-16 17:00N 38°42' W 009°08'3 4.9
2018-Jun-16 16:29N 38°42' W 009°12'1 1.0
2018-Jun-16 15:56N 38°42' W 009°12'0 0.0
2018-Jun-16 15:29N 38°42' W 009°12'0 0.0
2018-Jun-16 13:58N 38°42' W 009°12'1 2.4
2018-Jun-16 13:29N 38°41' W 009°11'3 5.6
2018-Jun-16 13:00N 38°42' W 009°14'0 0.1
2018-Jun-16 12:22N 38°42' W 009°14'0 0.0
2018-Jun-16 11:53N 38°42' W 009°14'0 0.1
2018-Jun-16 11:30N 38°42' W 009°14'2 0.1
2018-Jun-15 15:41N 38°42' W 009°12'0 0.3
2018-Jun-15 15:30N 38°42' W 009°12'2 3.0
2018-Jun-15 14:58N 38°41' W 009°10'2 4.9
2018-Jun-15 14:30N 38°42' W 009°08'3 6.2
2018-Jun-15 13:59N 38°42' W 009°12'0 0.2
2018-Jun-15 12:04N 38°42' W 009°12'0 1.6
2018-Jun-15 11:59N 38°42' W 009°12'2 3.7
2018-Jun-15 11:29N 38°41' W 009°10'1 1.7
2018-Jun-15 10:55N 38°42' W 009°09'2 0.2
2018-Jun-14 20:05N 38°42' W 009°12'0 0.0
2018-Jun-14 20:00N 38°42' W 009°12'1 2.8
2018-Jun-14 19:29N 38°41' W 009°11'2 3.9
2018-Jun-14 19:00N 38°42' W 009°09'3 4.8
2018-Jun-14 18:23N 38°42' W 009°12'0 0.3
2018-Jun-14 17:57N 38°42' W 009°12'0 0.2
2018-Jun-14 17:26N 38°42' W 009°12'1 1.9
2018-Jun-14 16:56N 38°41' W 009°11'3 6.6
2018-Jun-14 16:30N 38°42' W 009°08'2 3.7
2018-Jun-14 15:59N 38°42' W 009°10'  

Dump ship's entire track history